JAL91 RJTT-RJOH
Flight info
| Callsign | JAL91 |
|---|---|
| Flight time | N/A |
| Altitude | 40000 |
| Route | BEKLA Y18 RAKDA |
| Aircraft | A359/H-SDE2E3GHIJ3J4J5LM1ORWXY/LB1D1 |
Departure
| Time | N/A |
|---|---|
| Airport | Tokyo Haneda International Airport (RJTT) |
Arrival
| Time | 2026-05-06 14:11 |
|---|---|
| Airport | Yonago Kitaro Airport / JASDF Miho Air Base (RJOH) |
| Time | Latitude | Longitude | Altitude | Speed | Heading |
|---|---|---|---|---|---|
| 2026-05-06 14:00 | 35.47480 | 133.50582 | 6079 ft | 266 kts | 248° |
| 2026-05-06 14:00 | 35.46769 | 133.48503 | 5700 ft | 263 kts | 248° |
| 2026-05-06 14:00 | 35.46069 | 133.46456 | 5333 ft | 260 kts | 247° |
| 2026-05-06 14:00 | 35.45381 | 133.44444 | 4965 ft | 257 kts | 246° |
| 2026-05-06 14:01 | 35.44692 | 133.42442 | 4648 ft | 250 kts | 246° |
| 2026-05-06 14:01 | 35.44041 | 133.40553 | 4369 ft | 232 kts | 246° |
| 2026-05-06 14:01 | 35.43431 | 133.38791 | 4099 ft | 217 kts | 246° |
| 2026-05-06 14:01 | 35.42863 | 133.37156 | 3912 ft | 200 kts | 246° |
| 2026-05-06 14:02 | 35.42343 | 133.35670 | 3825 ft | 178 kts | 246° |
| 2026-05-06 14:02 | 35.41881 | 133.34351 | 3763 ft | 159 kts | 246° |
| 2026-05-06 14:02 | 35.41464 | 133.33170 | 3658 ft | 143 kts | 245° |
| 2026-05-06 14:02 | 35.41089 | 133.32104 | 3610 ft | 136 kts | 245° |
| 2026-05-06 14:03 | 35.40716 | 133.31041 | 3561 ft | 135 kts | 246° |
| 2026-05-06 14:03 | 35.40348 | 133.29984 | 3515 ft | 135 kts | 246° |
| 2026-05-06 14:03 | 35.40052 | 133.28905 | 3439 ft | 133 kts | 257° |
| 2026-05-06 14:03 | 35.40084 | 133.27767 | 3390 ft | 136 kts | 280° |
| 2026-05-06 14:04 | 35.40357 | 133.26659 | 3342 ft | 136 kts | 284° |
| 2026-05-06 14:04 | 35.40656 | 133.25557 | 3283 ft | 136 kts | 283° |
| 2026-05-06 14:04 | 35.40950 | 133.24473 | 3191 ft | 131 kts | 283° |
| 2026-05-06 14:04 | 35.41235 | 133.23422 | 2866 ft | 130 kts | 282° |
| 2026-05-06 14:05 | 35.41514 | 133.22369 | 2787 ft | 134 kts | 283° |
| 2026-05-06 14:05 | 35.41801 | 133.21285 | 2672 ft | 131 kts | 282° |
| 2026-05-06 14:05 | 35.42090 | 133.20233 | 2422 ft | 131 kts | 284° |
| 2026-05-06 14:05 | 35.42375 | 133.19495 | 2411 ft | 137 kts | 294° |
| 2026-05-06 14:06 | 35.42439 | 133.19368 | 2410 ft | 139 kts | 297° |
| 2026-05-06 14:08 | 35.42571 | 133.19139 | 2411 ft | 141 kts | 303° |
| 2026-05-06 14:08 | 35.43300 | 133.18318 | 2401 ft | 145 kts | 323° |
| 2026-05-06 14:08 | 35.44234 | 133.17826 | 2395 ft | 148 kts | 343° |
| 2026-05-06 14:08 | 35.45260 | 133.17741 | 2391 ft | 150 kts | 3° |
| 2026-05-06 14:09 | 35.46237 | 133.18111 | 2179 ft | 146 kts | 30° |
| 2026-05-06 14:09 | 35.46981 | 133.19016 | 1547 ft | 164 kts | 54° |
| 2026-05-06 14:09 | 35.47736 | 133.20159 | 937 ft | 174 kts | 65° |
| 2026-05-06 14:09 | 35.48369 | 133.21431 | 403 ft | 176 kts | 62° |
| 2026-05-06 14:10 | 35.48884 | 133.22756 | 51 ft | 167 kts | 63° |
| 2026-05-06 14:10 | 35.49331 | 133.23878 | 28 ft | 111 kts | 64° |
| 2026-05-06 14:10 | 35.49560 | 133.24458 | 27 ft | 59 kts | 64° |
| 2026-05-06 14:10 | 35.49728 | 133.24872 | 29 ft | 50 kts | 63° |
| 2026-05-06 14:11 | 35.49827 | 133.25086 | 29 ft | 11 kts | 38° |
| 2026-05-06 14:11 | 35.49897 | 133.25086 | 30 ft | 11 kts | 342° |
| 2026-05-06 14:11 | 35.49944 | 133.25014 | 31 ft | 12 kts | 272° |
| 2026-05-06 14:11 | 35.49920 | 133.24900 | 31 ft | 15 kts | 250° |
| 2026-05-06 14:12 | 35.49902 | 133.24777 | 30 ft | 16 kts | 300° |
| 2026-05-06 14:12 | 35.49975 | 133.24686 | 30 ft | 15 kts | 336° |
| 2026-05-06 14:12 | 35.50031 | 133.24655 | 30 ft | 0 kts | 334° |